sensor_id;sensor_type;location;lat;lon;timestamp;temperature;humidity
26691;DHT22;14307;51.718;8.938;2023-08-06T00:01:24;13.70;99.90
26691;DHT22;14307;51.718;8.938;2023-08-06T00:03:52;13.70;99.90
26691;DHT22;14307;51.718;8.938;2023-08-06T00:06:19;13.70;99.90
26691;DHT22;14307;51.718;8.938;2023-08-06T00:08:45;13.80;99.90
26691;DHT22;14307;51.718;8.938;2023-08-06T00:11:12;13.80;99.90
26691;DHT22;14307;51.718;8.938;2023-08-06T00:13:39;13.70;99.90
26691;DHT22;14307;51.718;8.938;2023-08-06T00:16:13;13.80;99.90
26691;DHT22;14307;51.718;8.938;2023-08-06T00:18:40;13.80;99.90
26691;DHT22;14307;51.718;8.938;2023-08-06T00:21:07;13.70;99.90
26691;DHT22;14307;51.718;8.938;2023-08-06T00:23:34;13.70;99.90
26691;DHT22;14307;51.718;8.938;2023-08-06T00:26:00;13.70;99.90
26691;DHT22;14307;51.718;8.938;2023-08-06T00:28:27;13.60;99.90
26691;DHT22;14307;51.718;8.938;2023-08-06T00:30:55;13.70;99.90
26691;DHT22;14307;51.718;8.938;2023-08-06T00:33:22;13.70;99.90
26691;DHT22;14307;51.718;8.938;2023-08-06T00:35:49;13.80;99.90
26691;DHT22;14307;51.718;8.938;2023-08-06T00:38:16;13.70;99.90
26691;DHT22;14307;51.718;8.938;2023-08-06T00:40:43;13.70;99.90
26691;DHT22;14307;51.718;8.938;2023-08-06T00:43:10;13.70;99.90
26691;DHT22;14307;51.718;8.938;2023-08-06T00:45:37;13.70;99.90
26691;DHT22;14307;51.718;8.938;2023-08-06T00:48:05;13.70;99.90
26691;DHT22;14307;51.718;8.938;2023-08-06T00:50:32;13.70;99.90
26691;DHT22;14307;51.718;8.938;2023-08-06T00:52:59;13.70;99.90
26691;DHT22;14307;51.718;8.938;2023-08-06T00:55:26;13.70;99.90
26691;DHT22;14307;51.718;8.938;2023-08-06T00:57:54;13.70;99.90
26691;DHT22;14307;51.718;8.938;2023-08-06T01:00:24;13.70;99.90
26691;DHT22;14307;51.718;8.938;2023-08-06T01:02:52;13.70;99.90
26691;DHT22;14307;51.718;8.938;2023-08-06T01:05:20;13.70;99.90
26691;DHT22;14307;51.718;8.938;2023-08-06T01:08:00;13.80;99.90
26691;DHT22;14307;51.718;8.938;2023-08-06T01:16:09;13.80;99.90
26691;DHT22;14307;51.718;8.938;2023-08-06T01:18:37;13.90;99.90
26691;DHT22;14307;51.718;8.938;2023-08-06T01:21:05;13.90;99.90
26691;DHT22;14307;51.718;8.938;2023-08-06T01:23:32;13.90;99.90
26691;DHT22;14307;51.718;8.938;2023-08-06T01:31:35;13.80;99.90
26691;DHT22;14307;51.718;8.938;2023-08-06T01:34:05;13.80;99.90
26691;DHT22;14307;51.718;8.938;2023-08-06T01:36:32;13.70;99.90
26691;DHT22;14307;51.718;8.938;2023-08-06T01:38:59;13.80;99.90
26691;DHT22;14307;51.718;8.938;2023-08-06T01:41:26;13.80;99.90
26691;DHT22;14307;51.718;8.938;2023-08-06T01:43:53;13.80;99.90
26691;DHT22;14307;51.718;8.938;2023-08-06T01:46:19;13.80;99.90
26691;DHT22;14307;51.718;8.938;2023-08-06T01:48:46;13.70;99.90
26691;DHT22;14307;51.718;8.938;2023-08-06T01:51:13;13.70;99.90
26691;DHT22;14307;51.718;8.938;2023-08-06T01:53:39;13.70;99.90
26691;DHT22;14307;51.718;8.938;2023-08-06T01:56:06;13.60;99.90
26691;DHT22;14307;51.718;8.938;2023-08-06T01:58:34;13.60;99.90
26691;DHT22;14307;51.718;8.938;2023-08-06T02:01:01;13.60;99.90
26691;DHT22;14307;51.718;8.938;2023-08-06T02:03:28;13.60;99.90
26691;DHT22;14307;51.718;8.938;2023-08-06T02:05:55;13.50;99.90
26691;DHT22;14307;51.718;8.938;2023-08-06T02:08:22;13.60;99.90
26691;DHT22;14307;51.718;8.938;2023-08-06T02:10:49;13.50;99.90
26691;DHT22;14307;51.718;8.938;2023-08-06T02:13:15;13.50;99.90
26691;DHT22;14307;51.718;8.938;2023-08-06T02:15:43;13.50;99.90
26691;DHT22;14307;51.718;8.938;2023-08-06T02:18:11;13.40;99.90
26691;DHT22;14307;51.718;8.938;2023-08-06T02:20:38;13.40;99.90
26691;DHT22;14307;51.718;8.938;2023-08-06T02:23:04;13.40;99.90
26691;DHT22;14307;51.718;8.938;2023-08-06T02:25:31;13.50;99.90
26691;DHT22;14307;51.718;8.938;2023-08-06T02:27:59;13.40;99.90
26691;DHT22;14307;51.718;8.938;2023-08-06T02:30:25;13.50;99.90
26691;DHT22;14307;51.718;8.938;2023-08-06T02:32:52;13.40;99.90
26691;DHT22;14307;51.718;8.938;2023-08-06T02:35:19;13.40;99.90
26691;DHT22;14307;51.718;8.938;2023-08-06T02:37:46;13.40;99.90
26691;DHT22;14307;51.718;8.938;2023-08-06T02:40:13;13.40;99.90
26691;DHT22;14307;51.718;8.938;2023-08-06T02:42:40;13.30;99.90
26691;DHT22;14307;51.718;8.938;2023-08-06T02:45:07;13.30;99.90
26691;DHT22;14307;51.718;8.938;2023-08-06T02:47:34;13.20;99.90
26691;DHT22;14307;51.718;8.938;2023-08-06T02:50:00;13.20;99.90
26691;DHT22;14307;51.718;8.938;2023-08-06T02:52:29;13.20;99.90
26691;DHT22;14307;51.718;8.938;2023-08-06T02:54:56;13.10;99.90
26691;DHT22;14307;51.718;8.938;2023-08-06T02:57:22;13.10;99.90
26691;DHT22;14307;51.718;8.938;2023-08-06T02:59:51;13.00;99.90
26691;DHT22;14307;51.718;8.938;2023-08-06T03:02:20;13.00;99.90
26691;DHT22;14307;51.718;8.938;2023-08-06T03:04:58;13.00;99.90
26691;DHT22;14307;51.718;8.938;2023-08-06T03:07:28;13.00;99.90
26691;DHT22;14307;51.718;8.938;2023-08-06T03:10:02;12.90;99.90
26691;DHT22;14307;51.718;8.938;2023-08-06T03:12:29;12.80;99.90
26691;DHT22;14307;51.718;8.938;2023-08-06T03:14:57;12.90;99.90
26691;DHT22;14307;51.718;8.938;2023-08-06T03:17:24;12.80;99.90
26691;DHT22;14307;51.718;8.938;2023-08-06T03:19:50;12.80;99.90
26691;DHT22;14307;51.718;8.938;2023-08-06T03:22:18;12.80;99.90
26691;DHT22;14307;51.718;8.938;2023-08-06T03:24:44;12.80;99.90
26691;DHT22;14307;51.718;8.938;2023-08-06T03:27:12;12.80;99.90
26691;DHT22;14307;51.718;8.938;2023-08-06T03:29:41;12.80;99.90
26691;DHT22;14307;51.718;8.938;2023-08-06T03:32:11;12.70;99.90
26691;DHT22;14307;51.718;8.938;2023-08-06T03:34:39;12.60;99.90
26691;DHT22;14307;51.718;8.938;2023-08-06T03:37:06;12.60;99.90
26691;DHT22;14307;51.718;8.938;2023-08-06T03:39:33;12.60;99.90
26691;DHT22;14307;51.718;8.938;2023-08-06T03:42:00;12.50;99.90
26691;DHT22;14307;51.718;8.938;2023-08-06T03:44:27;12.50;99.90
26691;DHT22;14307;51.718;8.938;2023-08-06T03:46:54;12.50;99.90
26691;DHT22;14307;51.718;8.938;2023-08-06T03:49:21;12.50;99.90
26691;DHT22;14307;51.718;8.938;2023-08-06T03:51:48;12.50;99.90
26691;DHT22;14307;51.718;8.938;2023-08-06T03:54:15;12.50;99.90
26691;DHT22;14307;51.718;8.938;2023-08-06T03:56:41;12.30;99.90
26691;DHT22;14307;51.718;8.938;2023-08-06T03:59:08;12.30;99.90
26691;DHT22;14307;51.718;8.938;2023-08-06T04:01:35;12.40;99.90
26691;DHT22;14307;51.718;8.938;2023-08-06T04:04:02;12.30;99.90
26691;DHT22;14307;51.718;8.938;2023-08-06T04:06:29;12.30;99.90
26691;DHT22;14307;51.718;8.938;2023-08-06T04:08:55;12.40;99.90
26691;DHT22;14307;51.718;8.938;2023-08-06T04:11:22;12.40;99.90
26691;DHT22;14307;51.718;8.938;2023-08-06T04:13:49;12.40;99.90
26691;DHT22;14307;51.718;8.938;2023-08-06T04:16:16;12.30;99.90
26691;DHT22;14307;51.718;8.938;2023-08-06T04:18:43;12.40;99.90
26691;DHT22;14307;51.718;8.938;2023-08-06T04:21:12;12.30;99.90
26691;DHT22;14307;51.718;8.938;2023-08-06T04:23:39;12.30;99.90
26691;DHT22;14307;51.718;8.938;2023-08-06T04:26:08;12.30;99.90
26691;DHT22;14307;51.718;8.938;2023-08-06T04:28:36;12.30;99.90
26691;DHT22;14307;51.718;8.938;2023-08-06T04:31:03;12.30;99.90
26691;DHT22;14307;51.718;8.938;2023-08-06T04:33:32;12.40;99.90
26691;DHT22;14307;51.718;8.938;2023-08-06T04:36:04;12.40;99.90
26691;DHT22;14307;51.718;8.938;2023-08-06T04:38:33;12.40;99.90
26691;DHT22;14307;51.718;8.938;2023-08-06T04:41:01;12.60;99.90
26691;DHT22;14307;51.718;8.938;2023-08-06T04:43:28;12.70;99.90
26691;DHT22;14307;51.718;8.938;2023-08-06T04:46:00;12.80;99.90
26691;DHT22;14307;51.718;8.938;2023-08-06T04:48:27;12.90;99.90
26691;DHT22;14307;51.718;8.938;2023-08-06T04:50:54;12.90;99.90
26691;DHT22;14307;51.718;8.938;2023-08-06T04:53:23;12.90;99.90
26691;DHT22;14307;51.718;8.938;2023-08-06T04:55:50;13.10;99.90
26691;DHT22;14307;51.718;8.938;2023-08-06T04:58:16;13.30;99.90
26691;DHT22;14307;51.718;8.938;2023-08-06T05:00:43;13.30;99.90
26691;DHT22;14307;51.718;8.938;2023-08-06T05:03:10;13.40;99.90
26691;DHT22;14307;51.718;8.938;2023-08-06T05:05:37;13.40;99.90
26691;DHT22;14307;51.718;8.938;2023-08-06T05:08:06;13.40;99.90
26691;DHT22;14307;51.718;8.938;2023-08-06T05:10:32;13.50;99.90
26691;DHT22;14307;51.718;8.938;2023-08-06T05:12:59;13.60;99.90
26691;DHT22;14307;51.718;8.938;2023-08-06T05:15:27;13.60;99.90
26691;DHT22;14307;51.718;8.938;2023-08-06T05:17:54;13.70;99.90
26691;DHT22;14307;51.718;8.938;2023-08-06T05:20:21;13.70;99.90
26691;DHT22;14307;51.718;8.938;2023-08-06T05:22:47;13.70;99.90
26691;DHT22;14307;51.718;8.938;2023-08-06T05:25:14;13.70;99.90
26691;DHT22;14307;51.718;8.938;2023-08-06T05:27:41;13.80;99.90
26691;DHT22;14307;51.718;8.938;2023-08-06T05:30:08;13.80;99.90
26691;DHT22;14307;51.718;8.938;2023-08-06T05:32:35;13.80;99.90
26691;DHT22;14307;51.718;8.938;2023-08-06T05:35:03;13.90;99.90
26691;DHT22;14307;51.718;8.938;2023-08-06T05:37:29;13.90;99.90
26691;DHT22;14307;51.718;8.938;2023-08-06T05:39:56;13.90;99.90
26691;DHT22;14307;51.718;8.938;2023-08-06T05:42:23;14.00;99.90
26691;DHT22;14307;51.718;8.938;2023-08-06T05:44:49;14.00;99.90
26691;DHT22;14307;51.718;8.938;2023-08-06T05:47:16;14.10;99.90
26691;DHT22;14307;51.718;8.938;2023-08-06T05:49:43;14.10;99.90
26691;DHT22;14307;51.718;8.938;2023-08-06T05:52:10;14.10;99.90
26691;DHT22;14307;51.718;8.938;2023-08-06T05:54:36;14.20;99.90
26691;DHT22;14307;51.718;8.938;2023-08-06T05:57:06;14.20;99.90
26691;DHT22;14307;51.718;8.938;2023-08-06T05:59:33;14.10;99.90
26691;DHT22;14307;51.718;8.938;2023-08-06T06:02:02;14.20;99.90
26691;DHT22;14307;51.718;8.938;2023-08-06T06:04:32;14.30;99.90
26691;DHT22;14307;51.718;8.938;2023-08-06T06:06:59;14.40;99.90
26691;DHT22;14307;51.718;8.938;2023-08-06T06:09:32;14.40;99.90
26691;DHT22;14307;51.718;8.938;2023-08-06T06:11:59;14.40;99.90
26691;DHT22;14307;51.718;8.938;2023-08-06T06:14:25;14.50;99.90
26691;DHT22;14307;51.718;8.938;2023-08-06T06:16:52;14.50;99.90
26691;DHT22;14307;51.718;8.938;2023-08-06T06:19:19;14.70;99.90
26691;DHT22;14307;51.718;8.938;2023-08-06T06:21:49;14.70;99.90
26691;DHT22;14307;51.718;8.938;2023-08-06T06:24:16;14.80;99.90
26691;DHT22;14307;51.718;8.938;2023-08-06T06:26:42;14.80;99.90
26691;DHT22;14307;51.718;8.938;2023-08-06T06:29:13;14.80;99.90
26691;DHT22;14307;51.718;8.938;2023-08-06T06:31:39;15.00;99.90
26691;DHT22;14307;51.718;8.938;2023-08-06T06:34:06;15.10;99.90
26691;DHT22;14307;51.718;8.938;2023-08-06T06:36:33;15.10;99.90
26691;DHT22;14307;51.718;8.938;2023-08-06T06:38:59;15.20;99.90
26691;DHT22;14307;51.718;8.938;2023-08-06T06:41:26;15.40;99.90
26691;DHT22;14307;51.718;8.938;2023-08-06T06:44:03;15.40;99.90
26691;DHT22;14307;51.718;8.938;2023-08-06T06:46:29;15.60;99.90
26691;DHT22;14307;51.718;8.938;2023-08-06T06:48:56;15.70;99.90
26691;DHT22;14307;51.718;8.938;2023-08-06T06:51:23;15.80;99.90
26691;DHT22;14307;51.718;8.938;2023-08-06T06:53:49;16.00;99.90
26691;DHT22;14307;51.718;8.938;2023-08-06T06:56:16;16.10;99.90
26691;DHT22;14307;51.718;8.938;2023-08-06T06:58:43;16.10;99.90
26691;DHT22;14307;51.718;8.938;2023-08-06T07:01:10;16.20;99.90
26691;DHT22;14307;51.718;8.938;2023-08-06T07:03:38;16.20;99.90
26691;DHT22;14307;51.718;8.938;2023-08-06T07:06:05;16.50;99.90
26691;DHT22;14307;51.718;8.938;2023-08-06T07:08:33;16.50;99.90
26691;DHT22;14307;51.718;8.938;2023-08-06T07:11:01;16.40;99.90
26691;DHT22;14307;51.718;8.938;2023-08-06T07:13:31;16.50;99.90
26691;DHT22;14307;51.718;8.938;2023-08-06T07:15:57;16.70;99.90
26691;DHT22;14307;51.718;8.938;2023-08-06T07:18:25;16.90;99.90
26691;DHT22;14307;51.718;8.938;2023-08-06T07:20:53;17.10;99.90
26691;DHT22;14307;51.718;8.938;2023-08-06T07:23:24;17.30;99.90
26691;DHT22;14307;51.718;8.938;2023-08-06T07:25:51;17.50;99.90
26691;DHT22;14307;51.718;8.938;2023-08-06T07:28:18;17.90;99.90
26691;DHT22;14307;51.718;8.938;2023-08-06T07:30:45;18.30;99.90
26691;DHT22;14307;51.718;8.938;2023-08-06T07:33:13;18.40;99.90
26691;DHT22;14307;51.718;8.938;2023-08-06T07:35:39;18.30;99.90
26691;DHT22;14307;51.718;8.938;2023-08-06T07:38:06;18.60;99.90
26691;DHT22;14307;51.718;8.938;2023-08-06T07:40:36;18.70;99.90
26691;DHT22;14307;51.718;8.938;2023-08-06T07:43:03;18.90;99.90
26691;DHT22;14307;51.718;8.938;2023-08-06T07:45:36;19.20;99.90
26691;DHT22;14307;51.718;8.938;2023-08-06T07:48:04;19.30;99.90
26691;DHT22;14307;51.718;8.938;2023-08-06T07:50:31;19.40;99.90
26691;DHT22;14307;51.718;8.938;2023-08-06T07:52:58;19.60;99.90
26691;DHT22;14307;51.718;8.938;2023-08-06T07:55:25;19.30;99.90
26691;DHT22;14307;51.718;8.938;2023-08-06T07:57:53;19.50;99.90
26691;DHT22;14307;51.718;8.938;2023-08-06T08:00:19;19.70;99.90
26691;DHT22;14307;51.718;8.938;2023-08-06T08:02:46;19.80;99.90
26691;DHT22;14307;51.718;8.938;2023-08-06T08:05:13;19.80;99.90
26691;DHT22;14307;51.718;8.938;2023-08-06T08:07:40;19.80;99.90
26691;DHT22;14307;51.718;8.938;2023-08-06T08:10:07;19.70;99.90
26691;DHT22;14307;51.718;8.938;2023-08-06T08:12:34;19.90;99.90
26691;DHT22;14307;51.718;8.938;2023-08-06T08:15:01;20.10;99.90
26691;DHT22;14307;51.718;8.938;2023-08-06T08:17:28;20.20;99.90
26691;DHT22;14307;51.718;8.938;2023-08-06T08:19:54;20.40;99.90
26691;DHT22;14307;51.718;8.938;2023-08-06T08:22:21;20.40;99.90
26691;DHT22;14307;51.718;8.938;2023-08-06T08:24:48;20.50;99.90
26691;DHT22;14307;51.718;8.938;2023-08-06T08:27:15;20.70;99.90
26691;DHT22;14307;51.718;8.938;2023-08-06T08:29:42;20.90;99.90
26691;DHT22;14307;51.718;8.938;2023-08-06T08:32:08;21.30;99.90
26691;DHT22;14307;51.718;8.938;2023-08-06T08:34:35;21.70;99.90
26691;DHT22;14307;51.718;8.938;2023-08-06T08:37:02;21.90;99.90
26691;DHT22;14307;51.718;8.938;2023-08-06T08:39:29;21.90;99.90
26691;DHT22;14307;51.718;8.938;2023-08-06T08:41:55;22.10;99.90
26691;DHT22;14307;51.718;8.938;2023-08-06T08:44:22;22.20;99.90
26691;DHT22;14307;51.718;8.938;2023-08-06T08:46:55;22.20;99.90
26691;DHT22;14307;51.718;8.938;2023-08-06T08:49:23;22.40;99.90
26691;DHT22;14307;51.718;8.938;2023-08-06T08:51:52;22.60;99.90
26691;DHT22;14307;51.718;8.938;2023-08-06T08:54:23;22.90;99.90
26691;DHT22;14307;51.718;8.938;2023-08-06T08:56:50;22.70;99.90
26691;DHT22;14307;51.718;8.938;2023-08-06T08:59:17;22.20;99.90
26691;DHT22;14307;51.718;8.938;2023-08-06T09:01:45;22.30;99.90
26691;DHT22;14307;51.718;8.938;2023-08-06T09:04:17;22.30;99.90
26691;DHT22;14307;51.718;8.938;2023-08-06T09:06:47;22.60;99.90
26691;DHT22;14307;51.718;8.938;2023-08-06T09:09:30;23.00;99.90
26691;DHT22;14307;51.718;8.938;2023-08-06T09:12:02;23.00;99.90
26691;DHT22;14307;51.718;8.938;2023-08-06T09:14:32;22.70;99.90
26691;DHT22;14307;51.718;8.938;2023-08-06T09:16:59;22.90;99.90
26691;DHT22;14307;51.718;8.938;2023-08-06T09:19:26;22.90;99.90
26691;DHT22;14307;51.718;8.938;2023-08-06T09:21:55;22.60;99.90
26691;DHT22;14307;51.718;8.938;2023-08-06T09:24:22;22.10;99.90
26691;DHT22;14307;51.718;8.938;2023-08-06T09:26:49;21.90;99.90
26691;DHT22;14307;51.718;8.938;2023-08-06T09:29:16;21.40;99.90
26691;DHT22;14307;51.718;8.938;2023-08-06T09:31:44;21.20;99.90
26691;DHT22;14307;51.718;8.938;2023-08-06T09:34:15;21.60;99.90
26691;DHT22;14307;51.718;8.938;2023-08-06T09:36:43;22.30;99.90
26691;DHT22;14307;51.718;8.938;2023-08-06T09:39:16;22.40;99.90
26691;DHT22;14307;51.718;8.938;2023-08-06T09:41:43;22.40;99.90
26691;DHT22;14307;51.718;8.938;2023-08-06T09:44:17;22.00;99.90
26691;DHT22;14307;51.718;8.938;2023-08-06T09:46:49;22.10;99.90
26691;DHT22;14307;51.718;8.938;2023-08-06T09:49:18;22.30;99.90
26691;DHT22;14307;51.718;8.938;2023-08-06T09:51:47;22.50;99.90
26691;DHT22;14307;51.718;8.938;2023-08-06T09:54:18;22.40;99.90
26691;DHT22;14307;51.718;8.938;2023-08-06T09:56:54;22.40;99.90
26691;DHT22;14307;51.718;8.938;2023-08-06T09:59:23;22.60;99.90
26691;DHT22;14307;51.718;8.938;2023-08-06T10:01:50;22.60;99.90
26691;DHT22;14307;51.718;8.938;2023-08-06T10:04:20;22.60;99.90
26691;DHT22;14307;51.718;8.938;2023-08-06T10:06:52;22.80;99.90
26691;DHT22;14307;51.718;8.938;2023-08-06T10:09:19;22.70;99.90
26691;DHT22;14307;51.718;8.938;2023-08-06T10:11:51;22.90;99.90
26691;DHT22;14307;51.718;8.938;2023-08-06T10:14:24;23.20;99.90
26691;DHT22;14307;51.718;8.938;2023-08-06T10:16:53;23.50;99.90
26691;DHT22;14307;51.718;8.938;2023-08-06T10:19:24;24.10;99.90
26691;DHT22;14307;51.718;8.938;2023-08-06T10:22:10;24.20;99.90
26691;DHT22;14307;51.718;8.938;2023-08-06T10:24:52;23.70;99.90
26691;DHT22;14307;51.718;8.938;2023-08-06T10:27:31;23.80;99.90
26691;DHT22;14307;51.718;8.938;2023-08-06T10:30:21;23.80;99.90
26691;DHT22;14307;51.718;8.938;2023-08-06T10:32:53;23.70;99.90
26691;DHT22;14307;51.718;8.938;2023-08-06T10:35:43;23.70;99.90
26691;DHT22;14307;51.718;8.938;2023-08-06T10:38:20;23.80;99.90
26691;DHT22;14307;51.718;8.938;2023-08-06T10:41:01;23.90;99.90
26691;DHT22;14307;51.718;8.938;2023-08-06T10:43:36;24.60;99.90
26691;DHT22;14307;51.718;8.938;2023-08-06T10:46:10;24.40;99.90
26691;DHT22;14307;51.718;8.938;2023-08-06T10:48:37;23.80;99.90
26691;DHT22;14307;51.718;8.938;2023-08-06T10:51:08;23.80;99.90
26691;DHT22;14307;51.718;8.938;2023-08-06T10:53:36;23.30;99.90
26691;DHT22;14307;51.718;8.938;2023-08-06T10:56:13;23.20;99.90
26691;DHT22;14307;51.718;8.938;2023-08-06T10:58:41;23.30;99.90
26691;DHT22;14307;51.718;8.938;2023-08-06T11:01:08;23.50;99.90
26691;DHT22;14307;51.718;8.938;2023-08-06T11:03:36;23.40;99.90
26691;DHT22;14307;51.718;8.938;2023-08-06T11:06:03;23.10;99.90
26691;DHT22;14307;51.718;8.938;2023-08-06T11:08:35;22.80;99.90
26691;DHT22;14307;51.718;8.938;2023-08-06T11:11:15;22.50;99.90
26691;DHT22;14307;51.718;8.938;2023-08-06T11:13:44;22.40;99.90
26691;DHT22;14307;51.718;8.938;2023-08-06T11:16:18;22.40;99.90
26691;DHT22;14307;51.718;8.938;2023-08-06T11:18:45;22.20;99.90
26691;DHT22;14307;51.718;8.938;2023-08-06T11:21:12;21.70;99.90
26691;DHT22;14307;51.718;8.938;2023-08-06T11:23:40;21.30;99.90
26691;DHT22;14307;51.718;8.938;2023-08-06T11:26:07;20.60;99.90
26691;DHT22;14307;51.718;8.938;2023-08-06T11:28:34;20.60;99.90
26691;DHT22;14307;51.718;8.938;2023-08-06T11:31:01;20.50;99.90
26691;DHT22;14307;51.718;8.938;2023-08-06T11:33:30;20.40;99.90
26691;DHT22;14307;51.718;8.938;2023-08-06T11:35:59;20.50;99.90
26691;DHT22;14307;51.718;8.938;2023-08-06T11:38:27;20.50;99.90
26691;DHT22;14307;51.718;8.938;2023-08-06T11:40:55;20.80;99.90
26691;DHT22;14307;51.718;8.938;2023-08-06T11:43:23;21.00;99.90
26691;DHT22;14307;51.718;8.938;2023-08-06T11:45:50;21.20;99.90
26691;DHT22;14307;51.718;8.938;2023-08-06T11:48:19;21.10;99.90
26691;DHT22;14307;51.718;8.938;2023-08-06T11:50:46;21.20;99.90
26691;DHT22;14307;51.718;8.938;2023-08-06T11:53:13;21.10;99.90
26691;DHT22;14307;51.718;8.938;2023-08-06T11:55:41;20.00;99.90
26691;DHT22;14307;51.718;8.938;2023-08-06T11:58:09;20.00;99.90
26691;DHT22;14307;51.718;8.938;2023-08-06T12:00:38;20.10;99.90
26691;DHT22;14307;51.718;8.938;2023-08-06T12:03:06;20.30;99.90
26691;DHT22;14307;51.718;8.938;2023-08-06T12:05:33;20.20;99.90
26691;DHT22;14307;51.718;8.938;2023-08-06T12:08:01;20.30;99.90
26691;DHT22;14307;51.718;8.938;2023-08-06T12:10:30;20.20;99.90
26691;DHT22;14307;51.718;8.938;2023-08-06T12:12:57;20.30;99.90
26691;DHT22;14307;51.718;8.938;2023-08-06T12:15:24;20.30;99.90
26691;DHT22;14307;51.718;8.938;2023-08-06T12:17:51;20.00;99.90
26691;DHT22;14307;51.718;8.938;2023-08-06T12:20:18;19.70;99.90
26691;DHT22;14307;51.718;8.938;2023-08-06T12:22:45;19.40;99.90
26691;DHT22;14307;51.718;8.938;2023-08-06T12:25:12;19.10;99.90
26691;DHT22;14307;51.718;8.938;2023-08-06T12:27:42;18.90;99.90
26691;DHT22;14307;51.718;8.938;2023-08-06T12:30:09;18.60;99.90
26691;DHT22;14307;51.718;8.938;2023-08-06T12:32:37;18.50;99.90
26691;DHT22;14307;51.718;8.938;2023-08-06T12:35:05;18.20;99.90
26691;DHT22;14307;51.718;8.938;2023-08-06T12:37:34;18.00;99.90
26691;DHT22;14307;51.718;8.938;2023-08-06T12:40:00;17.90;99.90
26691;DHT22;14307;51.718;8.938;2023-08-06T12:42:45;17.90;99.90
26691;DHT22;14307;51.718;8.938;2023-08-06T12:45:12;18.10;99.90
26691;DHT22;14307;51.718;8.938;2023-08-06T12:47:40;18.20;99.90
26691;DHT22;14307;51.718;8.938;2023-08-06T12:50:08;18.30;99.90
26691;DHT22;14307;51.718;8.938;2023-08-06T12:52:35;18.20;99.90
26691;DHT22;14307;51.718;8.938;2023-08-06T12:55:02;18.20;99.90
26691;DHT22;14307;51.718;8.938;2023-08-06T12:57:28;18.10;99.90
26691;DHT22;14307;51.718;8.938;2023-08-06T13:00:16;18.10;99.90
26691;DHT22;14307;51.718;8.938;2023-08-06T13:02:42;18.10;99.90
26691;DHT22;14307;51.718;8.938;2023-08-06T13:05:09;18.20;99.90
26691;DHT22;14307;51.718;8.938;2023-08-06T13:07:36;18.10;99.90
26691;DHT22;14307;51.718;8.938;2023-08-06T13:10:04;18.30;99.90
26691;DHT22;14307;51.718;8.938;2023-08-06T13:12:30;18.40;99.90
26691;DHT22;14307;51.718;8.938;2023-08-06T13:14:57;18.60;99.90
26691;DHT22;14307;51.718;8.938;2023-08-06T13:17:26;18.70;99.90
26691;DHT22;14307;51.718;8.938;2023-08-06T13:19:54;18.80;99.90
26691;DHT22;14307;51.718;8.938;2023-08-06T13:22:20;19.00;99.90
26691;DHT22;14307;51.718;8.938;2023-08-06T13:24:47;19.10;99.90
26691;DHT22;14307;51.718;8.938;2023-08-06T13:27:14;19.10;99.90
26691;DHT22;14307;51.718;8.938;2023-08-06T13:29:40;19.20;99.90
26691;DHT22;14307;51.718;8.938;2023-08-06T13:32:07;19.40;99.90
26691;DHT22;14307;51.718;8.938;2023-08-06T13:34:34;19.30;99.90
26691;DHT22;14307;51.718;8.938;2023-08-06T13:37:01;19.40;99.90
26691;DHT22;14307;51.718;8.938;2023-08-06T13:39:29;19.60;99.90
26691;DHT22;14307;51.718;8.938;2023-08-06T13:41:55;19.50;99.90
26691;DHT22;14307;51.718;8.938;2023-08-06T13:44:22;19.60;99.90
26691;DHT22;14307;51.718;8.938;2023-08-06T13:46:49;19.60;99.90
26691;DHT22;14307;51.718;8.938;2023-08-06T13:49:16;19.70;99.90
26691;DHT22;14307;51.718;8.938;2023-08-06T13:51:43;19.70;99.90
26691;DHT22;14307;51.718;8.938;2023-08-06T13:54:10;19.80;99.90
26691;DHT22;14307;51.718;8.938;2023-08-06T13:56:37;19.80;99.90
26691;DHT22;14307;51.718;8.938;2023-08-06T13:59:24;19.70;99.90
26691;DHT22;14307;51.718;8.938;2023-08-06T14:01:51;19.70;99.90
26691;DHT22;14307;51.718;8.938;2023-08-06T14:04:22;19.70;99.90
26691;DHT22;14307;51.718;8.938;2023-08-06T14:06:48;19.40;99.90
26691;DHT22;14307;51.718;8.938;2023-08-06T14:09:15;18.60;99.90
26691;DHT22;14307;51.718;8.938;2023-08-06T14:11:45;18.10;99.90
26691;DHT22;14307;51.718;8.938;2023-08-06T14:14:12;17.90;99.90
26691;DHT22;14307;51.718;8.938;2023-08-06T14:16:38;17.60;99.90
26691;DHT22;14307;51.718;8.938;2023-08-06T14:19:05;17.30;99.90
26691;DHT22;14307;51.718;8.938;2023-08-06T14:21:35;16.90;99.90
26691;DHT22;14307;51.718;8.938;2023-08-06T14:24:03;16.80;99.90
26691;DHT22;14307;51.718;8.938;2023-08-06T14:26:29;16.80;99.90
26691;DHT22;14307;51.718;8.938;2023-08-06T14:28:56;16.90;99.90
26691;DHT22;14307;51.718;8.938;2023-08-06T14:31:23;17.00;99.90
26691;DHT22;14307;51.718;8.938;2023-08-06T14:33:50;16.90;99.90
26691;DHT22;14307;51.718;8.938;2023-08-06T14:36:16;16.80;99.90
26691;DHT22;14307;51.718;8.938;2023-08-06T14:38:43;16.50;99.90
26691;DHT22;14307;51.718;8.938;2023-08-06T14:41:25;16.30;99.90
26691;DHT22;14307;51.718;8.938;2023-08-06T14:43:51;16.30;99.90
26691;DHT22;14307;51.718;8.938;2023-08-06T14:46:18;16.20;99.90
26691;DHT22;14307;51.718;8.938;2023-08-06T14:48:45;16.00;99.90
26691;DHT22;14307;51.718;8.938;2023-08-06T14:51:12;15.90;99.90
26691;DHT22;14307;51.718;8.938;2023-08-06T14:53:39;15.80;99.90
26691;DHT22;14307;51.718;8.938;2023-08-06T14:56:09;15.90;99.90
26691;DHT22;14307;51.718;8.938;2023-08-06T14:58:35;15.90;99.90
26691;DHT22;14307;51.718;8.938;2023-08-06T15:01:02;15.90;99.90
26691;DHT22;14307;51.718;8.938;2023-08-06T15:03:29;15.90;99.90
26691;DHT22;14307;51.718;8.938;2023-08-06T15:05:57;15.80;99.90
26691;DHT22;14307;51.718;8.938;2023-08-06T15:08:24;15.70;99.90
26691;DHT22;14307;51.718;8.938;2023-08-06T15:10:54;15.60;99.90
26691;DHT22;14307;51.718;8.938;2023-08-06T15:13:21;15.50;99.90
26691;DHT22;14307;51.718;8.938;2023-08-06T15:15:49;15.50;99.90
26691;DHT22;14307;51.718;8.938;2023-08-06T15:18:15;15.40;99.90
26691;DHT22;14307;51.718;8.938;2023-08-06T15:20:42;15.60;99.90
26691;DHT22;14307;51.718;8.938;2023-08-06T15:23:09;15.50;99.90
26691;DHT22;14307;51.718;8.938;2023-08-06T15:25:36;15.40;99.90
26691;DHT22;14307;51.718;8.938;2023-08-06T15:28:03;15.40;99.90
26691;DHT22;14307;51.718;8.938;2023-08-06T15:30:29;15.30;99.90
26691;DHT22;14307;51.718;8.938;2023-08-06T15:32:56;15.30;99.90
26691;DHT22;14307;51.718;8.938;2023-08-06T15:35:23;15.10;99.90
26691;DHT22;14307;51.718;8.938;2023-08-06T15:37:49;15.00;99.90
26691;DHT22;14307;51.718;8.938;2023-08-06T15:40:16;15.00;99.90
26691;DHT22;14307;51.718;8.938;2023-08-06T15:42:43;14.80;99.90
26691;DHT22;14307;51.718;8.938;2023-08-06T15:45:10;14.80;99.90
26691;DHT22;14307;51.718;8.938;2023-08-06T15:47:37;14.70;99.90